Time;durP1;ratioP1;P1;durP2;ratioP2;P2;SDS_P1;SDS_P2;PMS_P1;PMS_P2;Temp;Humidity;BMP_temperature;BMP_pressure;BME280_temperature;BME280_humidity;BME280_pressure;Samples;Min_cycle;Max_cycle;Signal;HPM_P1;HPM_P2
2023/03/06 00:00:28;;;;;;;11.80;7.38;;;3.90;99.90;;;;;;5053450;28;20195;-51
2023/03/06 00:02:54;;;;;;;15.20;8.27;;;3.90;99.90;;;;;;5052926;28;20175;-43
2023/03/06 00:05:20;;;;;;;13.30;7.15;;;3.90;99.90;;;;;;5052867;28;20214;-43
2023/03/06 00:07:46;;;;;;;11.73;7.68;;;3.70;99.90;;;;;;5052722;28;20169;-43
2023/03/06 00:10:18;;;;;;;13.95;8.55;;;3.80;99.90;;;;;;5053154;28;20214;-44
2023/03/06 00:12:43;;;;;;;15.48;8.98;;;3.90;99.90;;;;;;5052808;28;20176;-43
2023/03/06 00:15:10;;;;;;;12.10;7.95;;;3.80;99.90;;;;;;5052498;28;20171;-43
2023/03/06 00:17:36;;;;;;;12.00;7.88;;;3.90;99.90;;;;;;5052623;28;20182;-43
2023/03/06 00:20:03;;;;;;;11.77;6.72;;;3.90;99.90;;;;;;5051512;28;20167;-43
2023/03/06 00:22:29;;;;;;;13.02;7.40;;;3.80;99.90;;;;;;5052638;28;20163;-42
2023/03/06 00:24:54;;;;;;;11.02;6.75;;;3.80;99.90;;;;;;5053045;28;20174;-43
2023/03/06 00:27:20;;;;;;;16.92;7.30;;;3.80;99.90;;;;;;5052635;28;20198;-43
2023/03/06 00:29:48;;;;;;;10.45;6.78;;;3.80;99.90;;;;;;5052782;28;20557;-43
2023/03/06 00:32:15;;;;;;;13.02;7.75;;;3.80;99.90;;;;;;5052836;28;20204;-43
2023/03/06 00:34:40;;;;;;;13.38;7.43;;;3.90;99.90;;;;;;5051785;28;20214;-43
2023/03/06 00:37:06;;;;;;;11.45;7.63;;;3.70;99.90;;;;;;5052561;28;20194;-43
2023/03/06 00:39:32;;;;;;;13.75;8.85;;;3.90;99.90;;;;;;5052588;28;20174;-43
2023/03/06 00:41:57;;;;;;;12.75;7.70;;;3.80;99.90;;;;;;5052746;28;20159;-44
2023/03/06 00:44:23;;;;;;;14.25;8.30;;;3.80;99.90;;;;;;5052790;28;20194;-44
2023/03/06 00:46:49;;;;;;;13.70;8.50;;;3.80;99.90;;;;;;5050866;28;20537;-43
2023/03/06 00:49:14;;;;;;;14.55;9.55;;;3.90;99.90;;;;;;5052503;28;20213;-43
2023/03/06 00:51:40;;;;;;;14.30;9.30;;;3.80;99.90;;;;;;5052509;28;20256;-43
2023/03/06 00:54:05;;;;;;;14.48;9.38;;;3.80;99.90;;;;;;5051719;28;20206;-43
2023/03/06 00:56:31;;;;;;;17.20;9.48;;;3.80;99.90;;;;;;5052051;28;20174;-43
2023/03/06 00:58:56;;;;;;;18.63;10.00;;;3.80;99.90;;;;;;5052300;28;20171;-43
2023/03/06 01:01:22;;;;;;;19.05;9.07;;;3.90;99.90;;;;;;5051767;28;20767;-42
2023/03/06 01:03:47;;;;;;;19.00;11.10;;;3.80;99.90;;;;;;5051836;28;20171;-43
2023/03/06 01:06:13;;;;;;;20.67;12.23;;;3.80;99.90;;;;;;5051908;28;20674;-42
2023/03/06 01:08:39;;;;;;;15.50;10.27;;;3.80;99.90;;;;;;5051157;28;20205;-43
2023/03/06 01:11:05;;;;;;;22.73;12.57;;;3.70;99.90;;;;;;5051628;28;20181;-43
2023/03/06 01:13:30;;;;;;;20.10;12.10;;;3.80;99.90;;;;;;5051761;28;20669;-43
2023/03/06 01:16:08;;;;;;;21.38;12.90;;;3.70;99.90;;;;;;5051961;28;20185;-43
2023/03/06 01:18:34;;;;;;;19.67;11.50;;;3.80;99.90;;;;;;5051930;28;20576;-43
2023/03/06 01:21:00;;;;;;;26.23;13.18;;;3.80;99.90;;;;;;5051892;28;20201;-43
2023/03/06 01:23:26;;;;;;;16.83;11.13;;;3.80;99.90;;;;;;5051626;28;20181;-43
2023/03/06 01:25:51;;;;;;;20.23;11.98;;;3.80;99.90;;;;;;5050740;28;20194;-43
2023/03/06 01:28:17;;;;;;;19.42;12.32;;;3.90;99.90;;;;;;5051840;28;20216;-43
2023/03/06 01:30:42;;;;;;;14.75;8.82;;;3.90;99.90;;;;;;5051641;28;20206;-43
2023/03/06 01:33:08;;;;;;;20.70;11.15;;;3.80;99.90;;;;;;5051309;28;20587;-45
2023/03/06 01:35:34;;;;;;;18.58;11.40;;;3.60;99.90;;;;;;5051527;28;20186;-46
2023/03/06 01:37:59;;;;;;;21.00;11.48;;;3.60;99.90;;;;;;5051686;28;20675;-43
2023/03/06 01:40:25;;;;;;;16.98;10.48;;;3.60;99.90;;;;;;5052079;28;20166;-44
2023/03/06 01:42:50;;;;;;;18.13;10.93;;;3.50;99.90;;;;;;5051801;28;20178;-43
2023/03/06 01:45:16;;;;;;;18.48;11.68;;;3.50;99.90;;;;;;5050057;28;20171;-49
2023/03/06 01:47:45;;;;;;;19.90;11.40;;;3.50;99.90;;;;;;5051594;28;20792;-49
2023/03/06 01:50:11;;;;;;;13.82;8.98;;;3.60;99.90;;;;;;5051153;28;20221;-49
2023/03/06 01:52:47;;;;;;;22.23;11.55;;;3.40;99.90;;;;;;5051835;28;20167;-43
2023/03/06 01:55:20;;;;;;;19.85;11.68;;;3.50;99.90;;;;;;5051500;28;20163;-52
2023/03/06 01:57:51;;;;;;;19.50;12.20;;;3.50;99.90;;;;;;5051393;28;20169;-44
2023/03/06 02:00:21;;;;;;;18.70;10.35;;;3.40;99.90;;;;;;5051551;28;20350;-51
2023/03/06 02:02:52;;;;;;;17.17;10.70;;;3.40;99.90;;;;;;5049914;28;20171;-49
2023/03/06 02:05:18;;;;;;;18.02;11.48;;;3.40;99.90;;;;;;5050873;28;20219;-50
2023/03/06 02:07:45;;;;;;;18.80;11.23;;;3.40;99.90;;;;;;5050868;28;20175;-51
2023/03/06 02:10:12;;;;;;;21.88;11.85;;;3.50;99.90;;;;;;5051102;28;20549;-47
2023/03/06 02:12:42;;;;;;;19.13;11.80;;;3.50;99.90;;;;;;5050929;28;20193;-52
2023/03/06 02:15:09;;;;;;;19.80;11.20;;;3.50;99.90;;;;;;5050918;28;20159;-52
2023/03/06 02:17:36;;;;;;;18.50;11.95;;;3.50;99.90;;;;;;5050939;28;20532;-51
2023/03/06 02:20:16;;;;;;;19.00;12.23;;;3.40;99.90;;;;;;5050685;28;20230;-52
2023/03/06 02:23:11;;;;;;;21.40;11.65;;;3.50;99.90;;;;;;5049216;28;20167;-51
2023/03/06 02:25:40;;;;;;;18.52;11.90;;;3.50;99.90;;;;;;5050908;28;20163;-50
2023/03/06 02:28:09;;;;;;;20.98;12.15;;;3.40;99.90;;;;;;5054719;28;20171;-48
2023/03/06 02:30:36;;;;;;;19.73;11.45;;;3.40;99.90;;;;;;5054578;28;20206;-51
2023/03/06 02:33:02;;;;;;;18.60;11.57;;;3.40;99.90;;;;;;5054517;28;20170;-51
2023/03/06 02:35:31;;;;;;;20.13;11.88;;;3.40;99.90;;;;;;5054441;28;20190;-49
2023/03/06 02:38:06;;;;;;;22.27;12.63;;;3.40;99.90;;;;;;5054904;28;20167;-49
2023/03/06 02:40:32;;;;;;;22.42;13.25;;;3.40;99.90;;;;;;5054342;28;20163;-52
2023/03/06 02:42:58;;;;;;;21.08;11.75;;;3.40;99.90;;;;;;5054392;28;20649;-50
2023/03/06 02:45:38;;;;;;;21.63;13.32;;;3.50;99.90;;;;;;5054769;28;20162;-49
2023/03/06 02:48:03;;;;;;;20.95;12.35;;;3.60;99.90;;;;;;5054586;28;20680;-52
2023/03/06 02:50:30;;;;;;;20.20;12.63;;;3.50;99.90;;;;;;5054580;28;20210;-51
2023/03/06 02:52:56;;;;;;;25.23;14.15;;;3.60;99.90;;;;;;5054826;28;20204;-52
2023/03/06 02:55:21;;;;;;;21.55;12.55;;;3.60;99.90;;;;;;5054560;28;20673;-51
2023/03/06 02:57:47;;;;;;;22.98;13.35;;;3.60;99.90;;;;;;5054585;28;20202;-44
2023/03/06 03:00:14;;;;;;;20.35;12.88;;;3.70;99.90;;;;;;5054653;28;20634;-43
2023/03/06 03:02:40;;;;;;;24.25;13.55;;;3.50;99.90;;;;;;5054286;28;20601;-43
2023/03/06 03:05:06;;;;;;;23.15;14.13;;;3.60;99.90;;;;;;5054132;28;20289;-43
2023/03/06 03:07:31;;;;;;;26.08;14.27;;;3.70;99.90;;;;;;5054546;28;20198;-42
2023/03/06 03:09:57;;;;;;;23.48;13.82;;;3.60;99.90;;;;;;5054243;28;20202;-43
2023/03/06 03:12:22;;;;;;;21.45;12.07;;;3.60;99.90;;;;;;5054766;28;20193;-43
2023/03/06 03:14:48;;;;;;;21.70;13.07;;;3.70;99.90;;;;;;5054625;28;20653;-43
2023/03/06 03:17:14;;;;;;;20.92;13.77;;;3.60;99.90;;;;;;5054519;28;20686;-43
2023/03/06 03:19:40;;;;;;;23.55;13.15;;;3.70;99.90;;;;;;5054256;28;20622;-43
2023/03/06 03:22:05;;;;;;;25.67;12.90;;;3.70;99.90;;;;;;5054215;28;20174;-43
2023/03/06 03:24:31;;;;;;;23.05;13.25;;;3.70;99.90;;;;;;5053650;28;20634;-43
2023/03/06 03:26:56;;;;;;;18.33;10.48;;;3.70;99.90;;;;;;5054138;28;20167;-43
2023/03/06 03:29:22;;;;;;;26.67;13.73;;;3.70;99.90;;;;;;5054285;28;20676;-43
2023/03/06 03:31:48;;;;;;;25.70;13.23;;;3.70;99.90;;;;;;5053823;28;20657;-43
2023/03/06 03:34:14;;;;;;;23.30;13.45;;;3.70;99.90;;;;;;5052558;28;20183;-43
2023/03/06 03:36:40;;;;;;;24.83;14.45;;;3.60;99.90;;;;;;5054078;28;20182;-43
2023/03/06 03:39:05;;;;;;;24.45;14.25;;;3.60;99.90;;;;;;5053751;28;20158;-43
2023/03/06 03:41:32;;;;;;;21.83;13.80;;;3.60;99.90;;;;;;5052473;28;20577;-43
2023/03/06 03:43:58;;;;;;;22.75;14.50;;;3.70;99.90;;;;;;5053933;28;20250;-43
2023/03/06 03:46:24;;;;;;;24.95;13.80;;;3.60;99.90;;;;;;5054080;28;20310;-43
2023/03/06 03:48:49;;;;;;;30.10;15.10;;;3.70;99.90;;;;;;5053582;28;20194;-46
2023/03/06 03:51:15;;;;;;;26.33;13.95;;;3.60;99.90;;;;;;5053820;28;20180;-45
2023/03/06 03:53:42;;;;;;;27.27;14.40;;;3.80;99.90;;;;;;5053371;28;20178;-43
2023/03/06 03:56:09;;;;;;;28.48;15.20;;;3.70;99.90;;;;;;5053485;28;20174;-43
2023/03/06 03:58:34;;;;;;;26.75;14.00;;;3.60;99.90;;;;;;5053443;28;20590;-44
2023/03/06 04:01:00;;;;;;;31.17;15.52;;;3.60;99.90;;;;;;5053472;28;20191;-44
2023/03/06 04:03:26;;;;;;;26.42;14.80;;;3.60;99.90;;;;;;5053789;28;20166;-45
2023/03/06 04:05:52;;;;;;;26.10;14.68;;;6.20;99.90;;;;;;5053510;28;20240;-46
2023/03/06 04:08:18;;;;;;;24.83;15.82;;;3.60;99.90;;;;;;5053243;28;20605;-43
2023/03/06 04:10:44;;;;;;;28.08;15.95;;;3.70;99.90;;;;;;5053186;28;20241;-44
2023/03/06 04:13:09;;;;;;;26.23;15.30;;;3.60;99.90;;;;;;5053350;28;20169;-44
2023/03/06 04:15:35;;;;;;;24.73;15.18;;;3.70;99.90;;;;;;5052251;28;20170;-43
2023/03/06 04:18:01;;;;;;;28.77;16.00;;;3.60;99.90;;;;;;5053283;28;20170;-45
2023/03/06 04:20:27;;;;;;;31.15;16.27;;;3.60;99.90;;;;;;5053099;28;20624;-43
2023/03/06 04:22:53;;;;;;;30.17;17.73;;;3.60;99.90;;;;;;5051650;28;20174;-44
2023/03/06 04:25:18;;;;;;;31.02;14.65;;;3.70;99.90;;;;;;5051134;28;20170;-43
2023/03/06 04:27:44;;;;;;;27.05;14.10;;;3.70;99.90;;;;;;5052499;28;20644;-43
2023/03/06 04:30:11;;;;;;;28.40;17.08;;;3.60;99.90;;;;;;5052414;28;20207;-48
2023/03/06 04:32:36;;;;;;;32.33;17.38;;;3.60;99.90;;;;;;5052087;28;20171;-48
2023/03/06 04:35:02;;;;;;;32.13;16.67;;;3.70;99.90;;;;;;5052125;28;20197;-43
2023/03/06 04:37:28;;;;;;;31.90;15.73;;;3.70;99.90;;;;;;5052899;28;20690;-44
2023/03/06 04:39:54;;;;;;;30.67;17.52;;;3.70;99.90;;;;;;5052961;28;20257;-43
2023/03/06 04:42:20;;;;;;;31.40;16.17;;;3.70;99.90;;;;;;5052792;28;20162;-46
2023/03/06 04:44:46;;;;;;;32.67;19.65;;;3.70;99.90;;;;;;5052391;28;20205;-46
2023/03/06 04:47:12;;;;;;;34.45;17.67;;;3.60;99.90;;;;;;5052203;28;20169;-49
2023/03/06 04:49:37;;;;;;;30.63;16.70;;;3.60;99.90;;;;;;5033814;28;20795;-44
2023/03/06 04:52:03;;;;;;;28.13;16.50;;;3.60;99.90;;;;;;5051866;28;20626;-46
2023/03/06 04:54:29;;;;;;;31.38;17.23;;;3.70;99.90;;;;;;5051834;28;20182;-46
2023/03/06 04:56:55;;;;;;;31.08;17.05;;;3.70;99.90;;;;;;5052193;28;20174;-43
2023/03/06 04:59:20;;;;;;;30.58;15.45;;;3.60;99.90;;;;;;5052162;28;20189;-49
2023/03/06 05:01:46;;;;;;;33.10;16.50;;;3.70;99.90;;;;;;5051769;28;20514;-50
2023/03/06 05:04:11;;;;;;;33.92;18.27;;;3.60;99.90;;;;;;5051969;28;20185;-43
2023/03/06 05:06:37;;;;;;;34.58;17.20;;;3.60;99.90;;;;;;5051692;28;20215;-43
2023/03/06 05:09:03;;;;;;;26.38;15.23;;;3.60;99.90;;;;;;5051643;28;20198;-42
2023/03/06 05:11:29;;;;;;;31.98;17.35;;;3.60;99.90;;;;;;5051504;28;20171;-44
2023/03/06 05:13:54;;;;;;;28.98;16.92;;;3.60;99.90;;;;;;5051967;28;20170;-43
2023/03/06 05:16:20;;;;;;;30.45;17.20;;;3.60;99.90;;;;;;5051499;28;20170;-45
2023/03/06 05:18:45;;;;;;;25.73;15.57;;;3.70;99.90;;;;;;5051622;28;20397;-49
2023/03/06 05:21:11;;;;;;;24.52;14.88;;;3.60;99.90;;;;;;5051121;28;20174;-44
2023/03/06 05:23:38;;;;;;;29.42;16.20;;;3.70;99.90;;;;;;5051079;28;20258;-46
2023/03/06 05:26:11;;;;;;;33.15;17.23;;;3.70;99.90;;;;;;5051485;28;20178;-50
2023/03/06 05:28:38;;;;;;;30.65;16.15;;;3.60;99.90;;;;;;5051009;28;20265;-51
2023/03/06 05:31:04;;;;;;;27.83;16.88;;;3.50;99.90;;;;;;5051213;28;20174;-44
2023/03/06 05:33:34;;;;;;;31.38;18.15;;;3.60;99.90;;;;;;5051353;28;20215;-45
2023/03/06 05:36:00;;;;;;;34.33;18.92;;;3.70;99.90;;;;;;5049868;28;20575;-51
2023/03/06 05:38:26;;;;;;;30.70;17.60;;;3.70;99.90;;;;;;5051369;28;20170;-42
2023/03/06 05:40:52;;;;;;;35.45;17.70;;;3.70;99.90;;;;;;5050591;28;20167;-52
2023/03/06 05:43:18;;;;;;;34.47;18.85;;;3.70;99.90;;;;;;5050830;28;20296;-49
2023/03/06 05:45:43;;;;;;;31.67;16.02;;;3.60;99.90;;;;;;5050678;28;20228;-49
2023/03/06 05:48:11;;;;;;;33.60;19.00;;;3.60;99.90;;;;;;5051093;28;20174;-52
2023/03/06 05:50:37;;;;;;;32.88;16.38;;;3.70;99.90;;;;;;5051021;28;20209;-50
2023/03/06 05:53:03;;;;;;;26.63;15.18;;;3.50;99.90;;;;;;5050850;28;20166;-44
2023/03/06 05:55:28;;;;;;;32.10;17.52;;;3.70;99.90;;;;;;5051242;28;20527;-42
2023/03/06 05:57:54;;;;;;;33.80;17.13;;;3.60;99.90;;;;;;5051466;28;20661;-49
2023/03/06 06:00:20;;;;;;;31.80;15.77;;;3.50;99.90;;;;;;5051634;28;20249;-44
2023/03/06 06:02:46;;;;;;;24.88;13.25;;;3.70;99.90;;;;;;5053810;28;20174;-43
2023/03/06 06:05:12;;;;;;;31.50;16.45;;;3.60;99.90;;;;;;5054603;28;20218;-42
2023/03/06 06:07:37;;;;;;;31.17;14.82;;;3.60;99.90;;;;;;5037060;28;20175;-42
2023/03/06 06:10:04;;;;;;;28.85;15.13;;;3.60;99.90;;;;;;5054731;28;20700;-42
2023/03/06 06:12:30;;;;;;;27.67;15.38;;;3.50;99.90;;;;;;5054791;28;20158;-41
2023/03/06 06:14:55;;;;;;;32.20;14.95;;;3.60;99.90;;;;;;5055032;28;20699;-43
2023/03/06 06:17:21;;;;;;;31.73;16.08;;;3.60;99.90;;;;;;5055268;28;20216;-44
2023/03/06 06:19:47;;;;;;;22.63;13.88;;;3.60;99.90;;;;;;5054759;28;20615;-47
2023/03/06 06:22:12;;;;;;;27.52;15.43;;;3.60;99.90;;;;;;5054705;28;20633;-42
2023/03/06 06:24:38;;;;;;;33.33;16.10;;;3.70;99.90;;;;;;5054054;28;20231;-42
2023/03/06 06:27:04;;;;;;;28.58;15.57;;;3.60;99.90;;;;;;5054805;28;20178;-43
2023/03/06 06:29:30;;;;;;;36.42;15.02;;;3.60;99.90;;;;;;5054463;28;20575;-42
2023/03/06 06:31:56;;;;;;;25.13;13.40;;;3.50;99.90;;;;;;5054377;28;20171;-42
2023/03/06 06:34:22;;;;;;;24.50;13.35;;;3.50;99.90;;;;;;5054726;28;20178;-42
2023/03/06 06:36:49;;;;;;;27.58;14.32;;;3.50;99.90;;;;;;5054716;28;20531;-42
2023/03/06 06:39:16;;;;;;;24.02;13.13;;;3.60;99.90;;;;;;5054471;28;20163;-44
2023/03/06 06:41:42;;;;;;;26.52;14.60;;;3.70;99.90;;;;;;5054453;28;20171;-42
2023/03/06 06:44:13;;;;;;;27.85;15.30;;;3.60;99.90;;;;;;5054121;28;20534;-44
2023/03/06 06:46:39;;;;;;;29.92;15.63;;;3.60;99.90;;;;;;5054671;28;20177;-43
2023/03/06 06:49:05;;;;;;;34.90;16.00;;;3.60;99.90;;;;;;5054471;28;20293;-42
2023/03/06 06:51:32;;;;;;;25.40;14.55;;;3.60;99.90;;;;;;5053978;28;20273;-41
2023/03/06 06:53:58;;;;;;;28.02;16.75;;;3.50;99.90;;;;;;5054091;28;20217;-44
2023/03/06 06:56:24;;;;;;;26.65;15.93;;;3.60;99.90;;;;;;5053087;28;20174;-43
2023/03/06 06:58:54;;;;;;;31.85;15.85;;;3.70;99.90;;;;;;5054129;28;20167;-42
2023/03/06 07:01:21;;;;;;;25.83;14.75;;;3.70;99.90;;;;;;5053994;28;20163;-42
2023/03/06 07:03:47;;;;;;;31.70;15.68;;;3.70;99.90;;;;;;5053839;28;20634;-42
2023/03/06 07:06:12;;;;;;;29.98;15.75;;;3.70;99.90;;;;;;5053814;28;20218;-47
2023/03/06 07:08:38;;;;;;;32.13;15.98;;;3.70;99.90;;;;;;5052468;28;20169;-44
2023/03/06 07:11:06;;;;;;;30.02;16.08;;;3.70;99.90;;;;;;5053073;28;20209;-41
2023/03/06 07:13:32;;;;;;;26.13;15.32;;;3.70;99.90;;;;;;5053764;28;20254;-42
2023/03/06 07:15:58;;;;;;;33.58;18.02;;;3.70;99.90;;;;;;5053958;28;20720;-43
2023/03/06 07:18:23;;;;;;;29.48;17.25;;;3.80;99.90;;;;;;5054121;28;20238;-42
2023/03/06 07:20:49;;;;;;;28.38;17.55;;;3.80;99.90;;;;;;5053522;28;20195;-41
2023/03/06 07:23:14;;;;;;;34.03;17.38;;;3.80;99.90;;;;;;5053482;28;20262;-42
2023/03/06 07:25:40;;;;;;;31.83;18.20;;;3.80;99.90;;;;;;5053629;28;20174;-45
2023/03/06 07:28:06;;;;;;;37.50;20.35;;;3.80;99.90;;;;;;5053645;28;20171;-42
2023/03/06 07:30:31;;;;;;;32.83;18.52;;;3.80;99.90;;;;;;5053295;28;20198;-42
2023/03/06 07:32:58;;;;;;;33.67;17.55;;;3.90;99.90;;;;;;5053254;28;20169;-41
2023/03/06 07:35:24;;;;;;;31.65;17.92;;;3.80;99.90;;;;;;5054162;28;20545;-42
2023/03/06 07:37:51;;;;;;;37.60;20.05;;;3.80;99.90;;;;;;5054014;28;20167;-42
2023/03/06 07:40:18;;;;;;;38.03;19.75;;;3.80;99.90;;;;;;5053424;28;20174;-43
2023/03/06 07:42:44;;;;;;;30.60;18.50;;;3.80;99.90;;;;;;5053337;28;20170;-42
2023/03/06 07:45:11;;;;;;;36.42;20.23;;;3.80;99.90;;;;;;5052245;28;20175;-46
2023/03/06 07:47:37;;;;;;;37.47;20.45;;;3.90;99.90;;;;;;5051333;28;20642;-42
2023/03/06 07:50:05;;;;;;;33.20;18.92;;;3.80;99.90;;;;;;5051651;28;20260;-42
2023/03/06 07:52:31;;;;;;;37.60;22.55;;;3.90;99.90;;;;;;5051284;28;20189;-42
2023/03/06 07:54:57;;;;;;;35.83;19.45;;;3.90;99.90;;;;;;5051277;28;20171;-42
2023/03/06 07:57:23;;;;;;;35.78;19.60;;;4.10;99.90;;;;;;5051926;28;20163;-41
2023/03/06 07:59:48;;;;;;;33.83;19.80;;;4.00;99.90;;;;;;5051340;28;20546;-43
2023/03/06 08:02:14;;;;;;;35.15;20.60;;;4.00;99.90;;;;;;5051259;28;20965;-41
2023/03/06 08:04:39;;;;;;;35.20;20.58;;;4.10;99.90;;;;;;5051173;28;20213;-42
2023/03/06 08:07:05;;;;;;;37.70;20.90;;;4.00;99.90;;;;;;5049918;28;20706;-42
2023/03/06 08:09:31;;;;;;;41.22;20.85;;;4.10;99.90;;;;;;5051050;28;20748;-42
2023/03/06 08:11:56;;;;;;;34.10;19.70;;;4.20;99.90;;;;;;5051132;28;20273;-43
2023/03/06 08:14:22;;;;;;;36.33;19.75;;;4.20;99.90;;;;;;5051140;28;20175;-43
2023/03/06 08:16:50;;;;;;;34.17;19.83;;;4.30;99.90;;;;;;5051216;28;20241;-42
2023/03/06 08:19:16;;;;;;;28.40;17.73;;;4.30;99.90;;;;;;5051278;28;20175;-42
2023/03/06 08:21:42;;;;;;;35.47;19.33;;;4.40;99.90;;;;;;5051082;28;20690;-42
2023/03/06 08:24:08;;;;;;;32.25;19.02;;;4.40;99.90;;;;;;5050081;28;20174;-44
2023/03/06 08:26:34;;;;;;;33.63;18.73;;;4.20;99.90;;;;;;5050781;28;20183;-42
2023/03/06 08:29:01;;;;;;;30.48;18.60;;;4.20;99.90;;;;;;5050812;28;20576;-42
2023/03/06 08:31:32;;;;;;;34.03;18.60;;;4.20;99.90;;;;;;5049490;28;20201;-42
2023/03/06 08:34:02;;;;;;;32.65;18.35;;;4.30;99.90;;;;;;5050684;28;20163;-46
2023/03/06 08:36:28;;;;;;;33.50;19.10;;;4.30;99.90;;;;;;5050324;28;20174;-42
2023/03/06 08:38:55;;;;;;;30.30;14.65;;;4.20;99.90;;;;;;5050996;28;20623;-42
2023/03/06 08:41:21;;;;;;;35.85;20.65;;;4.20;99.90;;;;;;5051153;28;20174;-42
2023/03/06 08:43:48;;;;;;;33.30;18.73;;;4.40;99.90;;;;;;5050644;28;20173;-42
2023/03/06 08:46:14;;;;;;;35.58;19.88;;;4.30;99.90;;;;;;5050484;28;20167;-43
2023/03/06 08:48:40;;;;;;;34.80;19.80;;;4.50;99.90;;;;;;5050590;28;20231;-43
2023/03/06 08:51:07;;;;;;;33.28;19.98;;;4.50;99.90;;;;;;5050419;28;20202;-42
2023/03/06 08:53:33;;;;;;;32.63;18.77;;;4.60;99.90;;;;;;5050647;28;20610;-42
2023/03/06 08:55:59;;;;;;;35.10;19.23;;;4.60;99.90;;;;;;5050073;28;20201;-43
2023/03/06 08:58:24;;;;;;;35.28;20.73;;;4.60;99.90;;;;;;5050657;28;20224;-43
2023/03/06 09:00:50;;;;;;;36.50;21.40;;;4.70;99.90;;;;;;5050545;28;20162;-43
2023/03/06 09:03:16;;;;;;;38.70;20.48;;;4.90;99.90;;;;;;5050417;28;20257;-43
2023/03/06 09:05:42;;;;;;;31.70;18.58;;;4.90;99.90;;;;;;5049938;28;20215;-43
2023/03/06 09:08:08;;;;;;;33.95;19.02;;;4.90;99.90;;;;;;5050063;28;20181;-43
2023/03/06 09:10:33;;;;;;;36.22;20.90;;;5.00;99.90;;;;;;5049690;28;20213;-43
2023/03/06 09:13:00;;;;;;;26.90;15.73;;;5.20;99.90;;;;;;5049896;28;20286;-44
2023/03/06 09:15:25;;;;;;;30.65;16.17;;;5.20;99.90;;;;;;5050312;28;20258;-45
2023/03/06 09:17:52;;;;;;;29.80;18.00;;;5.10;99.90;;;;;;5050378;28;20622;-42
2023/03/06 09:20:19;;;;;;;20.13;12.88;;;5.00;99.90;;;;;;5050344;28;20171;-42
2023/03/06 09:22:45;;;;;;;34.63;20.38;;;4.90;99.90;;;;;;5049958;28;20646;-42
2023/03/06 09:25:19;;;;;;;31.80;17.67;;;4.90;99.90;;;;;;5049678;28;20174;-42
2023/03/06 09:27:45;;;;;;;30.52;17.40;;;4.90;99.90;;;;;;5049746;28;20192;-42
2023/03/06 09:30:11;;;;;;;29.95;17.25;;;5.00;99.90;;;;;;5049451;28;20248;-42
2023/03/06 09:32:37;;;;;;;29.52;17.13;;;4.90;99.90;;;;;;5050138;28;20170;-51
2023/03/06 09:35:03;;;;;;;36.65;18.10;;;4.90;99.90;;;;;;5049867;28;20665;-51
2023/03/06 09:37:29;;;;;;;32.30;15.70;;;4.90;99.90;;;;;;5049749;28;20159;-45
2023/03/06 09:39:55;;;;;;;30.08;17.42;;;4.90;99.90;;;;;;5049850;28;20171;-43
2023/03/06 09:42:22;;;;;;;31.50;17.33;;;4.90;99.90;;;;;;5049929;28;20182;-44
2023/03/06 09:44:55;;;;;;;26.95;15.65;;;5.00;99.90;;;;;;5049488;28;20186;-43
2023/03/06 09:47:36;;;;;;;26.77;15.27;;;5.10;99.90;;;;;;5049606;28;20209;-42
2023/03/06 09:50:21;;;;;;;24.73;13.70;;;5.00;99.90;;;;;;5049381;28;20272;-42
2023/03/06 09:53:10;;;;;;;23.13;14.02;;;5.10;99.90;;;;;;5049513;28;20178;-48
2023/03/06 09:55:38;;;;;;;30.25;15.52;;;5.30;99.90;;;;;;5049248;28;20180;-51
2023/03/06 09:58:12;;;;;;;33.42;20.38;;;5.40;99.90;;;;;;5049514;28;20163;-52
2023/03/06 10:01:04;;;;;;;31.75;17.48;;;5.60;99.90;;;;;;5049418;28;20178;-43
2023/03/06 10:03:48;;;;;;;21.02;10.27;;;5.60;99.90;;;;;;5048970;28;20179;-42
2023/03/06 10:06:23;;;;;;;24.48;16.08;;;5.40;99.90;;;;;;5049181;28;20247;-42
2023/03/06 10:08:48;;;;;;;30.92;16.98;;;5.40;99.90;;;;;;5049713;28;20536;-42
2023/03/06 10:11:21;;;;;;;20.83;11.93;;;5.40;99.90;;;;;;5049148;28;20203;-42
2023/03/06 10:13:52;;;;;;;22.60;13.55;;;5.50;99.90;;;;;;5049588;28;20207;-42
2023/03/06 10:16:21;;;;;;;29.60;16.08;;;5.30;99.90;;;;;;5048724;28;20171;-42
2023/03/06 10:18:47;;;;;;;27.55;16.35;;;5.20;99.90;;;;;;5049539;28;20167;-42
2023/03/06 10:21:56;;;;;;;27.13;15.82;;;5.20;99.90;;;;;;5049178;28;20268;-43
2023/03/06 10:25:03;;;;;;;28.33;16.30;;;5.20;99.90;;;;;;5029535;28;20178;-41
2023/03/06 10:27:30;;;;;;;28.33;16.85;;;5.20;99.90;;;;;;5049355;28;20171;-42
2023/03/06 10:30:20;;;;;;;30.65;18.23;;;5.20;99.90;;;;;;5049293;28;20264;-42
2023/03/06 10:33:34;;;;;;;27.40;16.63;;;5.20;99.90;;;;;;5049554;28;20167;-42
2023/03/06 10:35:59;;;;;;;30.73;17.52;;;5.20;99.90;;;;;;5045772;28;20241;-42
2023/03/06 10:38:29;;;;;;;24.50;13.50;;;5.20;99.90;;;;;;5049611;28;20658;-42
2023/03/06 10:41:20;;;;;;;27.58;15.77;;;5.50;99.90;;;;;;5049473;28;20174;-42
2023/03/06 10:43:58;;;;;;;24.88;15.25;;;5.50;99.90;;;;;;5049721;28;20181;-42
2023/03/06 10:46:30;;;;;;;18.77;11.75;;;5.50;99.90;;;;;;5050627;28;20167;-42
2023/03/06 10:48:58;;;;;;;25.45;14.48;;;5.40;99.90;;;;;;5052936;28;20163;-43
2023/03/06 10:51:25;;;;;;;23.13;13.52;;;5.30;99.90;;;;;;5053609;28;20166;-44
2023/03/06 10:54:16;;;;;;;19.33;12.43;;;5.30;99.90;;;;;;5053680;28;20171;-51
2023/03/06 10:56:46;;;;;;;20.73;12.00;;;5.20;99.90;;;;;;5053304;28;20261;-46
2023/03/06 10:59:17;;;;;;;19.20;11.98;;;5.20;99.90;;;;;;5053011;28;20167;-51
2023/03/06 11:01:50;;;;;;;20.45;11.73;;;5.30;99.90;;;;;;5052776;28;20167;-43
2023/03/06 11:04:45;;;;;;;24.25;14.25;;;5.30;99.90;;;;;;5051482;28;20175;-46
2023/03/06 11:07:21;;;;;;;26.38;12.98;;;5.30;99.90;;;;;;5052127;28;20218;-44
2023/03/06 11:10:16;;;;;;;26.65;14.70;;;5.40;99.90;;;;;;5052738;28;20627;-44
2023/03/06 11:12:54;;;;;;;28.75;15.73;;;5.40;99.90;;;;;;5051536;28;20171;-49
2023/03/06 11:15:22;;;;;;;25.58;15.20;;;5.40;99.90;;;;;;5052768;28;20170;-46
2023/03/06 11:17:58;;;;;;;22.75;14.68;;;5.40;99.90;;;;;;5052785;28;20167;-43
2023/03/06 11:20:31;;;;;;;24.63;14.10;;;8.60;99.90;;;;;;5052671;28;20174;-45
2023/03/06 11:23:11;;;;;;;24.08;12.95;;;5.50;99.90;;;;;;5052452;28;20577;-47
2023/03/06 11:25:42;;;;;;;20.73;12.95;;;5.40;99.90;;;;;;5052571;28;20278;-44
2023/03/06 11:28:20;;;;;;;26.05;13.02;;;5.30;99.90;;;;;;5052305;28;20182;-46
2023/03/06 11:30:50;;;;;;;22.10;13.52;;;2.30;99.90;;;;;;5052111;28;20202;-42
2023/03/06 11:33:21;;;;;;;22.88;12.80;;;5.30;99.90;;;;;;5052449;28;20201;-44
2023/03/06 11:36:08;;;;;;;24.70;13.93;;;5.40;99.90;;;;;;5052198;28;20225;-43
2023/03/06 11:38:51;;;;;;;19.77;11.73;;;5.50;99.90;;;;;;5051894;28;20174;-43
2023/03/06 11:41:46;;;;;;;20.52;12.52;;;5.50;99.90;;;;;;5052234;28;20167;-44
2023/03/06 11:44:27;;;;;;;18.33;11.40;;;5.40;99.90;;;;;;5052060;28;20212;-43
2023/03/06 11:47:03;;;;;;;16.40;9.35;;;5.50;99.90;;;;;;5052183;28;20261;-44
2023/03/06 11:49:39;;;;;;;15.68;8.60;;;5.40;99.90;;;;;;5051936;28;20206;-44
2023/03/06 11:52:21;;;;;;;20.05;11.98;;;5.30;99.90;;;;;;5052072;28;20202;-45
2023/03/06 11:54:53;;;;;;;22.58;13.50;;;5.20;99.90;;;;;;5052358;28;20503;-43
2023/03/06 11:57:23;;;;;;;23.17;12.25;;;5.20;99.90;;;;;;5050327;28;20223;-47
2023/03/06 12:00:00;;;;;;;20.70;12.43;;;5.10;99.90;;;;;;5051300;28;20174;-49
2023/03/06 12:02:57;;;;;;;24.35;14.82;;;5.20;99.90;;;;;;5051835;28;20574;-49
2023/03/06 12:05:36;;;;;;;24.23;14.15;;;5.30;99.90;;;;;;5052176;28;20218;-43
2023/03/06 12:08:34;;;;;;;25.48;14.82;;;5.50;99.90;;;;;;5051730;28;20262;-44
2023/03/06 12:11:19;;;;;;;22.52;13.63;;;5.70;99.90;;;;;;5050300;28;20218;-45
2023/03/06 12:14:08;;;;;;;22.55;15.07;;;5.70;99.90;;;;;;5049921;28;20170;-43
2023/03/06 12:16:50;;;;;;;19.90;12.27;;;5.90;99.90;;;;;;5049953;28;20272;-44
2023/03/06 12:19:43;;;;;;;25.08;12.48;;;5.90;99.90;;;;;;5051275;28;20174;-46
2023/03/06 12:22:19;;;;;;;20.77;12.85;;;5.80;99.90;;;;;;5049909;28;20527;-46
2023/03/06 12:25:08;;;;;;;20.30;12.00;;;5.70;99.90;;;;;;5051289;28;20169;-50
2023/03/06 12:27:33;;;;;;;19.95;12.32;;;5.70;99.90;;;;;;5051596;28;20170;-49
2023/03/06 12:30:09;;;;;;;25.33;12.57;;;5.70;99.90;;;;;;5051025;28;21003;-44
2023/03/06 12:32:53;;;;;;;19.55;12.50;;;5.70;99.90;;;;;;5051335;28;20241;-45
2023/03/06 12:35:44;;;;;;;22.40;12.65;;;5.70;99.90;;;;;;5049509;28;20178;-48
2023/03/06 12:38:19;;;;;;;18.05;10.80;;;5.70;99.90;;;;;;5051144;28;20162;-43
2023/03/06 12:41:15;;;;;;;18.83;12.10;;;5.60;99.90;;;;;;5051129;28;20505;-48
2023/03/06 12:44:00;;;;;;;17.85;11.25;;;5.60;99.90;;;;;;5031160;28;20175;-42
2023/03/06 12:46:27;;;;;;;18.42;11.55;;;5.60;99.90;;;;;;5045596;28;20181;-42
2023/03/06 12:49:23;;;;;;;21.80;12.18;;;5.60;99.90;;;;;;5051370;28;20171;-42